createdAt,value
2019-04-23T00:02:53.437Z,71.30
2019-04-23T00:05:38.078Z,71.30
2019-04-23T00:07:58.850Z,71.70
2019-04-23T00:10:28.778Z,72.30
2019-04-23T00:13:12.757Z,72.10
2019-04-23T00:15:45.296Z,73.00
2019-04-23T00:18:10.166Z,73.60
2019-04-23T00:20:39.229Z,73.90
2019-04-23T00:25:49.091Z,74.70
2019-04-23T00:28:16.438Z,75.00
2019-04-23T00:30:55.228Z,75.10
2019-04-23T00:33:20.245Z,75.20
2019-04-23T00:40:58.236Z,75.80
2019-04-23T00:43:27.107Z,75.90
2019-04-23T00:45:59.651Z,76.00
2019-04-23T00:51:11.663Z,76.80
2019-04-23T00:53:28.286Z,76.90
2019-04-23T00:56:19.165Z,77.40
2019-04-23T00:58:33.706Z,77.50
2019-04-23T01:01:00.366Z,77.90
2019-04-23T01:03:25.200Z,78.70
2019-04-23T01:05:58.864Z,79.20
2019-04-23T01:08:33.232Z,79.20
2019-04-23T01:11:08.223Z,79.40
2019-04-23T01:13:44.283Z,79.90
2019-04-23T01:16:09.969Z,80.60
2019-04-23T01:20:59.041Z,80.80
2019-04-23T01:23:53.830Z,81.40
2019-04-23T01:26:38.842Z,81.80
2019-04-23T01:29:12.641Z,82.30
2019-04-23T01:31:49.327Z,83.10
2019-04-23T01:34:20.172Z,83.30
2019-04-23T01:36:41.219Z,83.50
2019-04-23T01:39:17.383Z,83.80
2019-04-23T01:41:48.054Z,83.90
2019-04-23T01:44:25.362Z,84.30
2019-04-23T01:46:51.078Z,84.80
2019-04-23T01:49:25.093Z,84.70
2019-04-23T01:51:55.740Z,85.10
2019-04-23T01:54:17.801Z,85.40
2019-04-23T01:56:47.303Z,85.70
2019-04-23T02:01:53.169Z,85.80
2019-04-23T02:04:24.421Z,85.70
2019-04-23T02:06:51.738Z,86.60
2019-04-23T02:09:26.016Z,87.00
2019-04-23T02:11:55.256Z,87.50
2019-04-23T02:16:55.051Z,88.10
2019-04-23T02:19:23.297Z,88.30
2019-04-23T02:22:23.099Z,88.40
2019-04-23T02:24:47.674Z,88.60
2019-04-23T02:27:13.333Z,89.30
2019-04-23T02:29:58.522Z,90.00
2019-04-23T02:32:19.976Z,90.00
2019-04-23T02:37:35.920Z,90.10
2019-04-23T02:44:56.434Z,90.60
2019-04-23T02:47:25.380Z,90.60
2019-04-23T02:50:09.135Z,90.70
2019-04-23T02:52:24.931Z,90.90
2019-04-23T02:55:29.374Z,91.00
2019-04-23T02:57:18.657Z,91.20
2019-04-23T03:15:11.075Z,91.70
2019-04-23T03:17:36.997Z,91.80
2019-04-23T03:20:14.771Z,92.10
2019-04-23T03:22:58.965Z,92.10
2019-04-23T03:27:56.166Z,92.70
2019-04-23T03:30:51.451Z,92.90
2019-04-23T03:36:21.325Z,92.90
2019-04-23T03:40:50.439Z,93.50
2019-04-23T03:48:09.665Z,94.20
2019-04-23T03:50:38.930Z,94.60
2019-04-23T03:53:27.936Z,94.70
2019-04-23T03:55:37.394Z,95.00
2019-04-23T03:58:07.629Z,95.10
2019-04-23T04:00:37.912Z,95.30
2019-04-23T04:03:26.998Z,95.70
2019-04-23T04:08:16.009Z,96.00
2019-04-23T04:10:49.384Z,96.00
2019-04-23T04:13:20.031Z,96.10
2019-04-23T04:25:49.341Z,95.50
2019-04-23T04:36:07.424Z,94.50
2019-04-23T04:38:38.518Z,95.00
2019-04-23T04:41:04.272Z,94.60
2019-04-23T04:43:31.770Z,94.10
2019-04-23T04:46:15.052Z,93.70
2019-04-23T04:48:23.054Z,93.50
2019-04-23T04:50:49.248Z,93.80
2019-04-23T04:56:06.874Z,93.10
2019-04-23T04:58:32.388Z,92.50
2019-04-23T05:08:46.731Z,91.30
2019-04-23T05:11:21.514Z,90.50
2019-04-23T05:13:43.576Z,90.50
2019-04-23T05:15:58.224Z,90.10
2019-04-23T05:18:41.854Z,89.90
2019-04-23T05:21:21.378Z,90.40
2019-04-23T05:26:21.114Z,88.30
2019-04-23T05:28:55.473Z,88.40
2019-04-23T05:31:18.606Z,88.00
2019-04-23T05:33:46.436Z,86.50
2019-04-23T05:41:27.110Z,86.00
2019-04-23T05:43:46.701Z,85.20
2019-04-23T05:48:52.591Z,85.10
2019-04-23T05:51:33.509Z,85.50
2019-04-23T05:56:21.080Z,81.50
2019-04-23T05:58:52.207Z,82.60
2019-04-23T06:06:37.775Z,83.90
2019-04-23T06:14:06.577Z,83.70
2019-04-23T06:16:36.374Z,83.70
2019-04-23T06:19:07.942Z,84.40
2019-04-23T06:21:44.279Z,84.00
2019-04-23T06:24:13.109Z,84.30
2019-04-23T06:26:40.138Z,85.10
2019-04-23T06:29:19.418Z,84.70
2019-04-23T06:31:40.773Z,83.00
2019-04-23T06:34:12.295Z,81.00
2019-04-23T06:36:38.869Z,79.70
2019-04-23T06:39:00.213Z,78.10
2019-04-23T06:41:41.830Z,76.50
2019-04-23T06:44:25.391Z,76.40
2019-04-23T06:47:01.796Z,76.60
2019-04-23T06:54:40.614Z,73.70
2019-04-23T06:57:09.091Z,73.00
2019-04-23T06:59:41.272Z,74.80
2019-04-23T07:04:37.877Z,71.30
2019-04-23T07:07:25.682Z,70.80
2019-04-23T07:09:26.292Z,71.60
2019-04-23T07:12:05.601Z,72.50
2019-04-23T07:14:44.802Z,75.20
2019-04-23T07:17:03.920Z,78.90
2019-04-23T07:19:37.154Z,79.30
2019-04-23T07:22:16.049Z,78.30
2019-04-23T07:24:41.957Z,74.50
2019-04-23T07:27:18.179Z,74.50
2019-04-23T07:29:56.555Z,73.30
2019-04-23T07:32:15.160Z,71.60
2019-04-23T07:35:00.896Z,69.30
2019-04-23T07:37:24.100Z,67.50
2019-04-23T07:40:19.954Z,68.40
2019-04-23T07:42:54.846Z,64.20
2019-04-23T07:45:24.102Z,62.10
2019-04-23T07:48:11.039Z,61.10
2019-04-23T08:00:45.119Z,54.70
2019-04-23T08:05:55.350Z,51.20
2019-04-23T08:08:11.806Z,49.90
2019-04-23T08:11:10.966Z,47.40
2019-04-23T08:13:22.795Z,47.00
2019-04-23T08:15:53.988Z,46.60
2019-04-23T08:18:29.687Z,47.40
2019-04-23T08:21:10.508Z,46.20
2019-04-23T08:23:52.179Z,45.80
2019-04-23T08:29:03.584Z,46.60
2019-04-23T08:34:05.522Z,45.40
2019-04-23T08:36:34.226Z,44.90
2019-04-23T08:38:57.011Z,44.70
2019-04-23T08:41:33.768Z,43.30
2019-04-23T08:44:15.713Z,42.60
2019-04-23T08:47:50.750Z,42.50
2019-04-23T08:49:35.739Z,43.50
2019-04-23T08:52:18.368Z,43.40
2019-04-23T08:54:48.087Z,48.20
2019-04-23T08:59:44.073Z,49.60
2019-04-23T09:04:43.636Z,49.30
2019-04-23T09:09:45.457Z,51.30
2019-04-23T09:12:14.761Z,51.40
2019-04-23T09:14:42.189Z,52.20
2019-04-23T09:17:13.715Z,51.50
2019-04-23T09:19:56.381Z,51.30
2019-04-23T09:27:23.475Z,51.40
2019-04-23T09:29:51.559Z,52.70
2019-04-23T09:37:40.430Z,52.90
2019-04-23T09:40:10.555Z,53.70
2019-04-23T09:42:38.442Z,52.60
2019-04-23T09:45:12.996Z,50.80
2019-04-23T09:47:58.492Z,51.00
2019-04-23T09:50:26.325Z,51.30
2019-04-23T09:53:07.912Z,51.80
2019-04-23T09:55:27.489Z,51.00
2019-04-23T09:57:56.767Z,52.10
2019-04-23T10:00:33.005Z,53.00
2019-04-23T10:02:49.880Z,53.10
2019-04-23T10:05:16.676Z,54.90
2019-04-23T10:07:44.147Z,53.90
2019-04-23T10:10:01.649Z,54.60
2019-04-23T10:12:32.080Z,53.30
2019-04-23T10:15:09.933Z,54.20
2019-04-23T10:17:31.908Z,54.80
2019-04-23T10:20:02.553Z,56.70
2019-04-23T10:22:34.505Z,55.30
2019-04-23T10:25:03.439Z,56.20
2019-04-23T10:27:32.941Z,56.00
2019-04-23T10:30:01.854Z,55.00
2019-04-23T10:32:31.799Z,54.80
2019-04-23T10:35:10.194Z,54.60
2019-04-23T10:37:40.089Z,54.90
2019-04-23T10:40:05.420Z,55.40
2019-04-23T10:42:35.669Z,56.40
2019-04-23T10:45:20.050Z,55.00
2019-04-23T10:48:27.987Z,55.30
2019-04-23T10:50:50.985Z,55.70
2019-04-23T10:56:00.947Z,54.90
2019-04-23T10:58:30.396Z,54.60
2019-04-23T11:01:00.990Z,55.30
2019-04-23T11:08:31.229Z,54.00
2019-04-23T11:11:07.717Z,53.60
2019-04-23T11:13:37.788Z,54.60
2019-04-23T11:18:55.335Z,53.70
2019-04-23T11:21:13.972Z,54.70
2019-04-23T11:23:43.013Z,53.30
2019-04-23T11:26:14.175Z,53.10
2019-04-23T11:28:44.209Z,53.00
2019-04-23T11:31:23.694Z,53.40
2019-04-23T11:38:56.004Z,54.00
2019-04-23T11:41:25.121Z,54.60
2019-04-23T11:43:53.704Z,55.00
2019-04-23T11:46:41.236Z,54.70
2019-04-23T11:53:54.643Z,55.20
2019-04-23T11:57:04.753Z,53.90
2019-04-23T11:58:47.610Z,53.20
2019-04-23T12:01:49.226Z,54.30
2019-04-23T12:04:24.817Z,53.60
2019-04-23T12:06:52.820Z,54.50
2019-04-23T12:09:34.859Z,54.70
2019-04-23T12:14:36.381Z,55.40
2019-04-23T12:17:13.081Z,55.50
2019-04-23T12:22:10.372Z,54.70
2019-04-23T12:25:03.734Z,53.70
2019-04-23T12:27:20.256Z,53.80
2019-04-23T12:29:37.458Z,54.20
2019-04-23T12:32:42.547Z,55.40
2019-04-23T12:35:12.965Z,54.90
2019-04-23T12:52:41.254Z,54.90
2019-04-23T12:57:40.987Z,55.70
2019-04-23T13:00:14.963Z,55.60
2019-04-23T13:02:46.491Z,55.40
2019-04-23T13:05:12.580Z,55.60
2019-04-23T13:15:15.852Z,55.50
2019-04-23T13:20:19.426Z,55.90
2019-04-23T13:25:26.993Z,56.40
2019-04-23T13:28:02.293Z,56.20
2019-04-23T13:30:31.491Z,56.20
2019-04-23T13:33:02.781Z,55.60
2019-04-23T13:43:14.380Z,59.70
2019-04-23T13:48:13.481Z,60.50
2019-04-23T13:55:42.523Z,59.90
2019-04-23T14:00:55.705Z,59.70
2019-04-23T14:03:21.697Z,59.40
2019-04-23T14:06:18.181Z,60.00
2019-04-23T14:08:47.317Z,60.20
2019-04-23T14:11:19.483Z,60.50
2019-04-23T14:13:49.623Z,59.90
2019-04-23T14:26:32.629Z,60.10
2019-04-23T14:28:44.855Z,60.10
2019-04-23T14:31:10.557Z,61.00
2019-04-23T14:33:52.854Z,60.90
2019-04-23T14:36:17.361Z,61.00
2019-04-23T14:43:58.109Z,62.10
2019-04-23T14:48:52.087Z,61.50
2019-04-23T14:51:39.687Z,61.20
2019-04-23T14:53:55.070Z,59.90
2019-04-23T14:56:20.182Z,60.00
2019-04-23T14:59:01.709Z,59.50
2019-04-23T15:03:49.115Z,59.60
2019-04-23T15:06:27.736Z,59.30
2019-04-23T15:09:04.286Z,59.10
2019-04-23T15:13:55.293Z,58.50
2019-04-23T15:24:17.542Z,55.60
2019-04-23T15:28:56.067Z,55.30
2019-04-23T15:41:53.032Z,54.90
2019-04-23T15:51:52.517Z,55.40
2019-04-23T15:54:22.503Z,55.70
2019-04-23T15:56:51.933Z,56.30
2019-04-23T16:01:40.579Z,58.70
2019-04-23T16:03:53.850Z,60.50
2019-04-23T16:06:27.279Z,62.20
2019-04-23T16:09:16.426Z,63.30
2019-04-23T16:11:51.729Z,64.70
2019-04-23T16:14:35.672Z,65.60
2019-04-23T16:17:04.450Z,66.00
2019-04-23T16:19:43.130Z,66.60
2019-04-23T16:22:16.736Z,67.30
2019-04-23T16:24:49.016Z,67.90
2019-04-23T16:27:11.130Z,68.90
2019-04-23T16:30:00.130Z,69.30
2019-04-23T16:32:31.417Z,69.70
2019-04-23T16:34:54.141Z,69.80
2019-04-23T16:37:20.138Z,70.00
2019-04-23T16:39:56.809Z,70.50
2019-04-23T16:42:23.670Z,70.40
2019-04-23T16:47:24.563Z,70.40
2019-04-23T16:52:26.436Z,70.10
2019-04-23T16:57:43.520Z,69.50
2019-04-23T17:00:15.222Z,67.00
2019-04-23T17:02:24.605Z,65.00
2019-04-23T17:05:01.638Z,64.80
2019-04-23T17:07:21.059Z,64.10
2019-04-23T17:10:08.236Z,64.20
2019-04-23T17:12:17.569Z,64.30
2019-04-23T17:15:03.271Z,64.30
2019-04-23T17:17:26.551Z,64.70
2019-04-23T17:20:06.500Z,64.80
2019-04-23T17:22:31.509Z,65.30
2019-04-23T17:27:41.244Z,65.50
2019-04-23T17:30:09.666Z,66.10
2019-04-23T17:32:35.781Z,66.10
2019-04-23T17:35:17.815Z,66.40
2019-04-23T17:37:57.803Z,66.90
2019-04-23T17:40:39.546Z,67.10
2019-04-23T17:43:04.654Z,67.60
2019-04-23T17:48:16.049Z,67.80
2019-04-23T17:50:53.151Z,67.80
2019-04-23T17:53:29.859Z,67.70
2019-04-23T17:56:01.061Z,67.60
2019-04-23T17:58:23.289Z,67.50
2019-04-23T18:01:03.914Z,67.20
2019-04-23T18:03:25.842Z,67.00
2019-04-23T18:06:04.065Z,66.90
2019-04-23T18:11:09.252Z,66.90
2019-04-23T18:13:27.731Z,67.10
2019-04-23T18:16:06.730Z,67.10
2019-04-23T18:21:23.258Z,67.10
2019-04-23T18:24:13.358Z,67.00
2019-04-23T18:26:51.683Z,66.80
2019-04-23T18:32:01.619Z,66.60
2019-04-23T18:34:44.136Z,66.60
2019-04-23T18:37:09.294Z,66.20
2019-04-23T18:39:54.583Z,66.60
2019-04-23T18:42:34.430Z,66.70
2019-04-23T18:44:56.229Z,66.80
2019-04-23T18:47:37.813Z,67.00
2019-04-23T18:49:54.807Z,67.50
2019-04-23T18:52:32.802Z,68.00
2019-04-23T18:54:53.931Z,69.50
2019-04-23T18:57:30.378Z,70.90
2019-04-23T19:00:07.585Z,71.40
2019-04-23T19:02:42.892Z,72.90
2019-04-23T19:05:14.876Z,74.70
2019-04-23T19:08:00.969Z,76.10
2019-04-23T19:10:28.821Z,78.40
2019-04-23T19:12:48.614Z,81.70
2019-04-23T19:15:33.666Z,84.70
2019-04-23T19:17:50.532Z,86.80
2019-04-23T19:20:45.235Z,90.30
2019-04-23T19:23:19.085Z,91.50
2019-04-23T19:25:28.037Z,92.20
2019-04-23T19:28:10.439Z,92.80
2019-04-23T19:30:49.642Z,93.80
2019-04-23T19:33:31.466Z,94.30
2019-04-23T19:35:59.379Z,94.60
2019-04-23T19:38:13.606Z,95.00
2019-04-23T19:40:56.646Z,95.40
2019-04-23T19:43:12.145Z,96.20
2019-04-23T19:45:49.730Z,96.60
2019-04-23T19:48:25.400Z,97.30
2019-04-23T19:51:04.339Z,98.30
2019-04-23T19:53:26.002Z,99.90
2019-04-23T19:56:04.449Z,99.90
2019-04-23T19:58:25.668Z,99.90
2019-04-23T20:03:41.382Z,99.90
2019-04-23T20:06:16.612Z,99.90
2019-04-23T20:08:34.534Z,99.90
2019-04-23T20:10:58.959Z,99.90
2019-04-23T20:13:37.725Z,99.90
2019-04-23T20:18:42.964Z,99.90
2019-04-23T20:20:58.971Z,99.90
2019-04-23T20:23:55.910Z,99.90
2019-04-23T20:34:07.647Z,99.90
2019-04-23T20:36:25.988Z,99.90
2019-04-23T20:38:55.391Z,99.90
2019-04-23T20:41:26.219Z,99.90
2019-04-23T20:43:55.837Z,99.90
2019-04-23T20:46:43.065Z,99.90
2019-04-23T20:49:09.459Z,99.90
2019-04-23T20:51:41.298Z,99.90
2019-04-23T20:54:18.334Z,99.90
2019-04-23T20:56:51.802Z,99.90
2019-04-23T20:59:12.300Z,99.90
2019-04-23T21:02:07.102Z,99.90
2019-04-23T21:04:37.876Z,99.90
2019-04-23T21:06:56.538Z,99.90
2019-04-23T21:09:45.309Z,99.90
2019-04-23T21:12:04.817Z,99.90
2019-04-23T21:14:51.614Z,99.90
2019-04-23T21:17:05.397Z,99.90
2019-04-23T21:19:40.132Z,99.90
2019-04-23T21:24:43.368Z,99.90
2019-04-23T21:27:20.302Z,99.90
2019-04-23T21:29:53.603Z,99.90
2019-04-23T21:32:24.771Z,99.90
2019-04-23T21:34:55.930Z,99.90
2019-04-23T21:37:42.784Z,99.90
2019-04-23T21:40:32.499Z,99.90
2019-04-23T21:43:01.391Z,99.90
2019-04-23T21:45:35.693Z,99.90
2019-04-23T21:50:37.415Z,99.90
2019-04-23T21:55:39.098Z,99.90
2019-04-23T22:00:36.732Z,99.90
2019-04-23T22:05:44.432Z,99.90
2019-04-23T22:08:03.493Z,99.90
2019-04-23T22:10:31.955Z,99.90
2019-04-23T22:15:45.081Z,99.90
2019-04-23T22:18:06.443Z,99.90
2019-04-23T22:20:43.653Z,99.90
2019-04-23T22:23:12.592Z,99.90
2019-04-23T22:25:48.913Z,99.90
2019-04-23T22:28:10.409Z,99.90
2019-04-23T22:30:49.472Z,99.90
2019-04-23T22:35:49.491Z,99.90
2019-04-23T22:38:18.783Z,99.90
2019-04-23T22:40:49.813Z,99.90
2019-04-23T22:43:20.576Z,99.90
2019-04-23T22:48:29.621Z,99.90
2019-04-23T22:51:03.141Z,99.90
2019-04-23T22:53:13.805Z,99.90
2019-04-23T22:55:57.448Z,99.90
2019-04-23T22:58:19.338Z,99.90
2019-04-23T23:01:12.603Z,99.90
2019-04-23T23:03:36.143Z,99.90
2019-04-23T23:06:12.636Z,99.90
2019-04-23T23:08:43.698Z,99.90
2019-04-23T23:11:08.720Z,99.90
2019-04-23T23:13:53.441Z,99.90
2019-04-23T23:16:07.561Z,99.90
2019-04-23T23:18:59.762Z,99.90
2019-04-23T23:23:40.787Z,99.90
2019-04-23T23:28:42.596Z,99.90
2019-04-23T23:31:13.892Z,99.90
2019-04-23T23:36:12.449Z,99.90
2019-04-23T23:38:50.840Z,99.90
2019-04-23T23:41:24.960Z,99.90
2019-04-23T23:44:20.888Z,99.90
2019-04-23T23:48:48.506Z,99.90
2019-04-23T23:51:23.324Z,99.90
2019-04-23T23:56:15.389Z,99.90
